Time;durP1;ratioP1;P1;durP2;ratioP2;P2;SDS_P1;SDS_P2;PMS_P1;PMS_P2;Temp;Humidity;BMP_temperature;BMP_pressure;BME280_temperature;BME280_humidity;BME280_pressure;Samples;Min_cycle;Max_cycle;Signal;HPM_P1;HPM_P2
2022/02/22 00:01:42;;;;;;;37.67;6.65;;;6.30;99.90;;;;;;5073238;28;20453;-74
2022/02/22 00:04:08;;;;;;;32.83;5.95;;;6.20;99.90;;;;;;5073309;28;20044;-74
2022/02/22 00:06:34;;;;;;;46.92;7.30;;;6.20;99.90;;;;;;5073307;28;20498;-73
2022/02/22 00:09:00;;;;;;;27.88;6.70;;;6.20;99.90;;;;;;5073142;28;20032;-73
2022/02/22 00:11:26;;;;;;;45.40;7.65;;;6.20;99.90;;;;;;5072851;28;20040;-73
2022/02/22 00:13:53;;;;;;;34.03;7.03;;;6.10;99.90;;;;;;5073585;28;20047;-73
2022/02/22 00:16:18;;;;;;;40.42;7.47;;;6.20;99.90;;;;;;5073232;28;20086;-74
2022/02/22 00:18:44;;;;;;;32.53;6.68;;;6.20;99.90;;;;;;5072894;28;20040;-74
2022/02/22 00:21:11;;;;;;;23.25;6.70;;;6.10;99.90;;;;;;5072717;28;20043;-73
2022/02/22 00:23:37;;;;;;;25.52;6.40;;;6.10;99.90;;;;;;5072994;28;20440;-73
2022/02/22 00:26:02;;;;;;;33.13;6.28;;;6.10;99.90;;;;;;5072751;28;20055;-73
2022/02/22 00:28:28;;;;;;;30.42;6.28;;;6.00;99.90;;;;;;5072618;28;20524;-73
2022/02/22 00:30:53;;;;;;;33.38;6.90;;;6.00;99.90;;;;;;5071182;28;20074;-73
2022/02/22 00:33:19;;;;;;;28.85;5.97;;;5.90;99.90;;;;;;5072770;28;20416;-73
2022/02/22 00:35:44;;;;;;;38.38;8.45;;;5.90;99.90;;;;;;5072637;28;20436;-72
2022/02/22 00:38:10;;;;;;;27.90;6.13;;;5.90;99.90;;;;;;5072491;28;20033;-73
2022/02/22 00:40:36;;;;;;;34.10;8.32;;;5.90;99.90;;;;;;5071436;28;20045;-73
2022/02/22 00:43:06;;;;;;;30.30;7.30;;;6.00;99.90;;;;;;5072337;28;20081;-73
2022/02/22 00:45:32;;;;;;;28.98;5.47;;;5.80;99.90;;;;;;5071484;28;20119;-73
2022/02/22 00:47:57;;;;;;;31.38;5.63;;;5.80;99.90;;;;;;5072550;28;20044;-72
2022/02/22 00:50:23;;;;;;;28.70;6.45;;;5.80;99.90;;;;;;5072709;28;20036;-72
2022/02/22 00:52:49;;;;;;;30.67;6.38;;;5.80;99.90;;;;;;5072678;28;20032;-73
2022/02/22 00:55:14;;;;;;;24.30;6.40;;;5.80;99.90;;;;;;5072795;28;20520;-73
2022/02/22 00:57:41;;;;;;;43.63;6.57;;;5.70;99.90;;;;;;5072670;28;20033;-73
2022/02/22 01:00:08;;;;;;;27.92;5.88;;;5.70;99.90;;;;;;5071356;28;20071;-73
2022/02/22 01:02:34;;;;;;;30.83;6.53;;;5.70;99.90;;;;;;5072236;28;20383;-73
2022/02/22 01:05:00;;;;;;;29.58;6.90;;;5.70;99.90;;;;;;5072074;28;20041;-72
2022/02/22 01:07:26;;;;;;;28.00;6.93;;;5.70;99.90;;;;;;5070808;28;20157;-73
2022/02/22 01:09:51;;;;;;;27.67;6.72;;;5.80;99.90;;;;;;5071872;28;20036;-72
2022/02/22 01:12:17;;;;;;;25.95;5.97;;;5.80;99.90;;;;;;5070420;28;20037;-73
2022/02/22 01:14:44;;;;;;;34.40;5.43;;;5.80;99.90;;;;;;5070629;28;20080;-73
2022/02/22 01:17:11;;;;;;;33.22;5.07;;;5.80;99.90;;;;;;5071877;28;20040;-73
2022/02/22 01:19:37;;;;;;;34.78;7.40;;;5.80;99.90;;;;;;5070879;28;20448;-73
2022/02/22 01:22:03;;;;;;;24.80;5.28;;;5.80;99.90;;;;;;5070257;28;20595;-74
2022/02/22 01:24:29;;;;;;;37.72;7.72;;;5.90;99.90;;;;;;5070704;28;20468;-73
2022/02/22 01:26:54;;;;;;;29.42;4.55;;;5.90;99.90;;;;;;5070393;28;20071;-73
2022/02/22 01:29:20;;;;;;;32.45;5.20;;;5.80;99.90;;;;;;5071676;28;20072;-73
2022/02/22 01:31:46;;;;;;;25.35;6.40;;;5.80;99.90;;;;;;5071588;28;20036;-73
2022/02/22 01:34:12;;;;;;;23.90;6.10;;;5.80;99.90;;;;;;5071700;28;20521;-73
2022/02/22 01:36:38;;;;;;;21.80;4.70;;;5.70;99.90;;;;;;5071717;28;20085;-73
2022/02/22 01:39:04;;;;;;;19.35;4.95;;;5.70;99.90;;;;;;5071627;28;20033;-73
2022/02/22 01:41:32;;;;;;;27.90;5.30;;;5.60;99.90;;;;;;5070137;28;20163;-73
2022/02/22 01:43:58;;;;;;;27.92;4.60;;;5.50;99.90;;;;;;5071796;28;20036;-73
2022/02/22 01:46:25;;;;;;;19.02;6.00;;;5.50;99.90;;;;;;5071693;28;20052;-72
2022/02/22 01:48:50;;;;;;;30.05;5.28;;;5.40;99.90;;;;;;5071632;28;20036;-73
2022/02/22 01:51:16;;;;;;;31.10;6.75;;;5.50;99.90;;;;;;5071256;28;20386;-73
2022/02/22 01:53:42;;;;;;;25.95;5.57;;;5.30;99.90;;;;;;5070190;28;20044;-73
2022/02/22 01:56:08;;;;;;;27.83;7.50;;;5.30;99.90;;;;;;5053564;28;20040;-74
2022/02/22 01:58:35;;;;;;;35.80;8.27;;;5.30;99.90;;;;;;5070118;28;20055;-73
2022/02/22 02:01:00;;;;;;;21.73;5.03;;;5.30;99.90;;;;;;5071456;28;20094;-72
2022/02/22 02:03:26;;;;;;;28.15;5.22;;;5.30;99.90;;;;;;5071552;28;20046;-73
2022/02/22 02:05:52;;;;;;;27.63;6.43;;;5.10;99.90;;;;;;5070158;28;20055;-73
2022/02/22 02:08:18;;;;;;;24.67;6.40;;;5.20;99.90;;;;;;5071250;28;20064;-73
2022/02/22 02:10:44;;;;;;;27.80;5.00;;;5.10;99.90;;;;;;5071247;28;20514;-72
2022/02/22 02:13:10;;;;;;;29.33;6.30;;;5.10;99.90;;;;;;5071077;28;20028;-72
2022/02/22 02:15:35;;;;;;;30.35;6.47;;;5.10;99.90;;;;;;5070304;28;20045;-72
2022/02/22 02:18:01;;;;;;;37.75;6.22;;;5.10;99.90;;;;;;5074405;28;20037;-72
2022/02/22 02:20:27;;;;;;;26.58;5.53;;;5.10;99.90;;;;;;5075247;28;20051;-73
2022/02/22 02:22:52;;;;;;;26.17;6.13;;;5.10;99.90;;;;;;5074769;28;20128;-74
2022/02/22 02:25:18;;;;;;;30.00;5.32;;;5.10;99.90;;;;;;5075300;28;20051;-72
2022/02/22 02:27:43;;;;;;;34.38;6.82;;;5.10;99.90;;;;;;5075002;28;20032;-72
2022/02/22 02:30:10;;;;;;;31.83;6.45;;;5.10;99.90;;;;;;5074875;28;20079;-73
2022/02/22 02:32:36;;;;;;;27.00;5.65;;;5.10;99.90;;;;;;5074585;28;20033;-73
2022/02/22 02:35:04;;;;;;;31.80;7.13;;;5.00;99.90;;;;;;5075015;28;20036;-72
2022/02/22 02:37:30;;;;;;;26.30;6.25;;;5.00;99.90;;;;;;5074779;28;20051;-72
2022/02/22 02:39:55;;;;;;;26.88;5.57;;;5.00;99.90;;;;;;5075020;28;20045;-73
2022/02/22 02:42:21;;;;;;;23.15;4.72;;;5.00;99.90;;;;;;5074560;28;20045;-74
2022/02/22 02:44:48;;;;;;;27.02;5.55;;;5.00;99.90;;;;;;5074867;28;20040;-73
2022/02/22 02:47:14;;;;;;;21.38;6.45;;;5.00;99.90;;;;;;5074671;28;20071;-73
2022/02/22 02:49:41;;;;;;;25.55;5.10;;;5.00;99.90;;;;;;5073315;28;20047;-73
2022/02/22 02:52:07;;;;;;;38.33;6.25;;;5.00;99.90;;;;;;5074209;28;20036;-72
2022/02/22 02:54:33;;;;;;;21.83;5.05;;;5.00;99.90;;;;;;5074470;28;20128;-72
2022/02/22 02:56:59;;;;;;;31.67;8.57;;;5.00;99.90;;;;;;5074342;28;20605;-74
2022/02/22 02:59:24;;;;;;;25.02;6.15;;;5.00;99.90;;;;;;5074522;28;20116;-72
2022/02/22 03:01:50;;;;;;;28.42;6.60;;;5.00;99.90;;;;;;5073015;28;20066;-72
2022/02/22 03:04:19;;;;;;;34.38;7.07;;;5.10;99.90;;;;;;5074268;28;20041;-73
2022/02/22 03:06:46;;;;;;;27.45;6.43;;;5.10;99.90;;;;;;5074317;28;20044;-73
2022/02/22 03:09:11;;;;;;;32.42;6.47;;;5.10;99.90;;;;;;5072940;28;20039;-73
2022/02/22 03:11:37;;;;;;;26.75;5.90;;;5.20;99.90;;;;;;5072657;28;20036;-73
2022/02/22 03:14:03;;;;;;;41.22;6.00;;;5.10;99.90;;;;;;5072907;28;20049;-73
2022/02/22 03:16:29;;;;;;;33.78;7.43;;;5.10;99.90;;;;;;5074202;28;20454;-73
2022/02/22 03:18:55;;;;;;;38.78;8.10;;;5.10;99.90;;;;;;5072774;28;20123;-73
2022/02/22 03:21:20;;;;;;;33.55;5.72;;;5.00;99.90;;;;;;5072410;28;20044;-73
2022/02/22 03:23:46;;;;;;;24.50;5.82;;;5.10;99.90;;;;;;5072747;28;20033;-73
2022/02/22 03:26:12;;;;;;;34.65;7.38;;;5.00;99.90;;;;;;5072665;28;20178;-72
2022/02/22 03:28:38;;;;;;;28.83;5.70;;;5.10;99.90;;;;;;5085171;22;20314;-72
2022/02/22 03:31:04;;;;;;;32.50;5.50;;;5.00;99.90;;;;;;5055662;28;20043;-72
2022/02/22 03:33:31;;;;;;;34.63;6.53;;;5.10;99.90;;;;;;5056544;28;20044;-72
2022/02/22 03:35:56;;;;;;;29.35;6.95;;;5.00;99.90;;;;;;5074247;28;20048;-72
2022/02/22 03:38:22;;;;;;;29.48;6.13;;;5.00;99.90;;;;;;5073964;28;20032;-72
2022/02/22 03:40:48;;;;;;;31.70;6.05;;;5.00;99.90;;;;;;5054946;28;20040;-72
2022/02/22 03:43:14;;;;;;;34.67;6.05;;;5.00;99.90;;;;;;5056073;28;20412;-72
2022/02/22 03:45:40;;;;;;;34.95;5.88;;;5.00;99.90;;;;;;5056433;28;20032;-72
2022/02/22 03:48:06;;;;;;;32.58;5.07;;;4.90;99.90;;;;;;5074296;28;20452;-72
2022/02/22 03:50:32;;;;;;;41.75;7.45;;;4.90;99.90;;;;;;5056044;28;20041;-72
2022/02/22 03:52:58;;;;;;;24.90;5.82;;;4.90;99.90;;;;;;5055859;28;20090;-72
2022/02/22 03:55:23;;;;;;;24.35;5.85;;;4.80;99.90;;;;;;5056171;28;20063;-72
2022/02/22 03:57:50;;;;;;;31.30;6.00;;;4.80;99.90;;;;;;5073928;28;20409;-72
2022/02/22 04:00:21;;;;;;;31.67;7.68;;;4.80;99.90;;;;;;5073915;28;20048;-71
2022/02/22 04:02:47;;;;;;;27.52;6.57;;;4.80;99.90;;;;;;5055402;28;20048;-72
2022/02/22 04:05:14;;;;;;;27.20;6.07;;;4.70;99.90;;;;;;5073787;28;20562;-72
2022/02/22 04:07:39;;;;;;;25.77;5.18;;;4.80;99.90;;;;;;5055874;28;20561;-72
2022/02/22 04:10:06;;;;;;;29.98;5.72;;;4.70;99.90;;;;;;5073727;28;20127;-72
2022/02/22 04:12:32;;;;;;;27.75;5.57;;;4.70;99.90;;;;;;5055584;28;20044;-72
2022/02/22 04:14:58;;;;;;;22.52;5.32;;;4.70;99.90;;;;;;5073746;28;20509;-72
2022/02/22 04:17:23;;;;;;;22.70;5.60;;;4.70;99.90;;;;;;5073515;28;20033;-72
2022/02/22 04:19:49;;;;;;;38.00;5.18;;;4.70;99.90;;;;;;5073770;28;20044;-72
2022/02/22 04:22:19;;;;;;;38.75;5.72;;;4.60;99.90;;;;;;5055428;28;20082;-72
2022/02/22 04:24:45;;;;;;;22.65;5.38;;;4.60;99.90;;;;;;5073737;28;20037;-72
2022/02/22 04:27:11;;;;;;;21.98;6.03;;;4.60;99.90;;;;;;5055406;28;20043;-72
2022/02/22 04:29:37;;;;;;;20.80;5.78;;;4.60;99.90;;;;;;5072996;28;20044;-72
2022/02/22 04:32:04;;;;;;;27.65;4.88;;;4.50;99.90;;;;;;5072613;28;20062;-72
2022/02/22 04:34:29;;;;;;;29.40;5.45;;;4.50;99.90;;;;;;5073384;28;20063;-72
2022/02/22 04:36:55;;;;;;;20.70;6.20;;;4.50;99.90;;;;;;5073379;28;20682;-72
2022/02/22 04:39:20;;;;;;;20.23;4.13;;;4.40;99.90;;;;;;5072614;28;20033;-72
2022/02/22 04:41:46;;;;;;;36.55;6.47;;;4.40;99.90;;;;;;5072845;28;20058;-72
2022/02/22 04:44:12;;;;;;;22.30;5.07;;;4.40;99.90;;;;;;5055256;28;20036;-72
2022/02/22 04:46:37;;;;;;;20.30;5.22;;;4.30;99.90;;;;;;5072705;28;20434;-72
2022/02/22 04:49:08;;;;;;;26.83;5.43;;;4.30;99.90;;;;;;5054697;28;20410;-72
2022/02/22 04:51:34;;;;;;;25.30;5.22;;;4.30;99.90;;;;;;5072559;28;20040;-72
2022/02/22 04:53:59;;;;;;;30.23;6.03;;;4.30;99.90;;;;;;5055380;28;20032;-72
2022/02/22 04:56:25;;;;;;;33.17;5.53;;;4.30;99.90;;;;;;5072683;28;20048;-72
2022/02/22 04:58:50;;;;;;;24.45;5.15;;;4.30;99.90;;;;;;5072681;28;20501;-72
2022/02/22 05:01:16;;;;;;;32.47;7.28;;;4.30;99.90;;;;;;5038209;28;20051;-73
2022/02/22 05:03:41;;;;;;;16.73;4.30;;;4.40;99.90;;;;;;5055056;28;20131;-73
2022/02/22 05:06:07;;;;;;;23.75;6.22;;;4.30;99.90;;;;;;5072921;28;20037;-73
2022/02/22 05:08:33;;;;;;;30.17;6.10;;;4.30;99.90;;;;;;5055144;28;20050;-74
2022/02/22 05:10:58;;;;;;;22.40;5.30;;;4.30;99.90;;;;;;5054624;28;20519;-74
2022/02/22 05:13:24;;;;;;;31.33;6.03;;;4.30;99.90;;;;;;5054690;28;20039;-74
2022/02/22 05:15:49;;;;;;;26.90;6.28;;;4.30;99.90;;;;;;5072720;28;20090;-74
2022/02/22 05:18:15;;;;;;;25.73;5.55;;;4.30;99.90;;;;;;5053986;28;20468;-74
2022/02/22 05:20:54;;;;;;;23.98;5.65;;;4.30;99.90;;;;;;5055106;28;20036;-74
2022/02/22 05:23:20;;;;;;;17.20;4.57;;;4.30;99.90;;;;;;5054645;28;20093;-74
2022/02/22 05:25:46;;;;;;;30.48;6.10;;;4.30;99.90;;;;;;5054459;28;20116;-74
2022/02/22 05:28:12;;;;;;;34.95;6.32;;;4.30;99.90;;;;;;5071922;28;20462;-74
2022/02/22 05:30:37;;;;;;;30.48;5.53;;;4.30;99.90;;;;;;5072364;28;20043;-74
2022/02/22 05:33:04;;;;;;;37.05;6.47;;;4.40;99.90;;;;;;5054237;28;20040;-74
2022/02/22 05:35:29;;;;;;;24.00;5.93;;;4.40;99.90;;;;;;5054221;28;20406;-74
2022/02/22 05:37:55;;;;;;;23.90;6.68;;;4.40;99.90;;;;;;5072234;28;20032;-74
2022/02/22 05:40:20;;;;;;;23.35;5.18;;;4.40;99.90;;;;;;5054450;28;20129;-74
2022/02/22 05:42:46;;;;;;;44.03;7.22;;;4.30;99.90;;;;;;5071900;28;20619;-74
2022/02/22 05:45:11;;;;;;;32.63;5.78;;;4.30;99.90;;;;;;5054466;28;20090;-74
2022/02/22 05:47:37;;;;;;;22.27;5.38;;;4.30;99.90;;;;;;5072237;28;20036;-74
2022/02/22 05:50:03;;;;;;;28.88;6.50;;;4.30;99.90;;;;;;5054223;28;20045;-74
2022/02/22 05:52:29;;;;;;;28.38;5.38;;;4.30;99.90;;;;;;5074193;28;20085;-74
2022/02/22 05:54:54;;;;;;;35.22;6.45;;;4.40;99.90;;;;;;5075998;28;20533;-74
2022/02/22 05:57:23;;;;;;;26.35;5.22;;;4.30;99.90;;;;;;5075865;28;20037;-74
2022/02/22 05:59:49;;;;;;;31.98;5.80;;;4.30;99.90;;;;;;5076387;28;20048;-74
2022/02/22 06:02:14;;;;;;;33.28;7.38;;;4.30;99.90;;;;;;5058056;28;20048;-74
2022/02/22 06:04:40;;;;;;;27.23;6.05;;;4.30;99.90;;;;;;5058260;28;20577;-74
2022/02/22 06:07:05;;;;;;;22.13;5.50;;;4.30;99.90;;;;;;5057905;28;20127;-74
2022/02/22 06:09:31;;;;;;;29.67;6.88;;;4.30;99.90;;;;;;5075983;28;20071;-74
2022/02/22 06:11:56;;;;;;;24.13;6.70;;;4.20;99.90;;;;;;5075677;28;20397;-74
2022/02/22 06:14:22;;;;;;;44.35;7.10;;;4.20;99.90;;;;;;5058279;28;20390;-74
2022/02/22 06:16:48;;;;;;;29.17;5.68;;;4.20;99.90;;;;;;5057880;28;20504;-74
2022/02/22 06:19:14;;;;;;;25.90;5.60;;;4.20;99.90;;;;;;5075717;28;20521;-74
2022/02/22 06:21:39;;;;;;;20.48;4.85;;;4.20;99.90;;;;;;5075508;28;20125;-74
2022/02/22 06:24:05;;;;;;;32.33;7.55;;;4.10;99.90;;;;;;5075717;28;20044;-74
2022/02/22 06:26:31;;;;;;;30.52;5.55;;;4.10;99.90;;;;;;5057945;28;20432;-74
2022/02/22 06:28:57;;;;;;;21.95;5.10;;;4.10;99.90;;;;;;5075331;28;20040;-74
2022/02/22 06:31:22;;;;;;;23.35;5.45;;;4.10;99.90;;;;;;5075288;28;20460;-74
2022/02/22 06:33:48;;;;;;;31.13;5.60;;;4.10;99.90;;;;;;5075308;28;20075;-74
2022/02/22 06:36:13;;;;;;;30.80;7.47;;;4.00;99.90;;;;;;5057357;28;20090;-74
2022/02/22 06:38:39;;;;;;;33.63;6.10;;;4.00;99.90;;;;;;5074984;28;20078;-74
2022/02/22 06:41:04;;;;;;;28.83;6.50;;;4.00;99.90;;;;;;5074837;28;20512;-74
2022/02/22 06:43:30;;;;;;;33.40;7.13;;;4.00;99.90;;;;;;5057233;28;20127;-74
2022/02/22 06:45:55;;;;;;;39.47;6.45;;;4.00;99.90;;;;;;5057200;28;20109;-74
2022/02/22 06:48:21;;;;;;;30.05;6.45;;;4.00;99.90;;;;;;5057022;28;20044;-74
2022/02/22 06:50:47;;;;;;;47.80;8.35;;;4.10;99.90;;;;;;5057256;28;20040;-74
2022/02/22 06:53:12;;;;;;;32.38;8.23;;;4.00;99.90;;;;;;5075118;28;20071;-74
2022/02/22 06:55:39;;;;;;;32.25;6.60;;;4.00;99.90;;;;;;5075007;28;20616;-74
2022/02/22 06:58:07;;;;;;;34.90;6.93;;;4.10;99.90;;;;;;5057087;28;20052;-73
2022/02/22 07:00:40;;;;;;;33.72;5.65;;;4.00;99.90;;;;;;5075461;28;20093;-73
2022/02/22 07:03:06;;;;;;;32.15;6.00;;;4.10;99.90;;;;;;5056273;28;20056;-73
2022/02/22 07:05:32;;;;;;;26.88;6.55;;;4.00;99.90;;;;;;5057631;28;20391;-73
2022/02/22 07:07:58;;;;;;;34.53;6.15;;;4.00;99.90;;;;;;5057408;28;20044;-74
2022/02/22 07:10:25;;;;;;;20.58;6.38;;;4.00;99.90;;;;;;5057167;28;20043;-73
2022/02/22 07:12:51;;;;;;;24.20;5.78;;;4.10;99.90;;;;;;5057090;28;20553;-73
2022/02/22 07:15:16;;;;;;;45.83;8.52;;;4.10;99.90;;;;;;5075150;28;20032;-74
2022/02/22 07:17:54;;;;;;;29.02;4.90;;;4.20;99.90;;;;;;5056956;28;20103;-73
2022/02/22 07:20:21;;;;;;;32.63;7.00;;;4.20;99.90;;;;;;5040127;28;20048;-74
2022/02/22 07:22:48;;;;;;;47.15;8.85;;;4.30;99.90;;;;;;5056605;28;20048;-74
2022/02/22 07:25:15;;;;;;;31.98;6.65;;;4.40;99.90;;;;;;5057239;28;20044;-74
2022/02/22 07:27:44;;;;;;;29.85;6.70;;;4.40;99.90;;;;;;5056547;28;20040;-74
2022/02/22 07:30:12;;;;;;;34.75;5.55;;;4.50;99.90;;;;;;5056795;28;20036;-74
2022/02/22 07:32:38;;;;;;;30.17;5.72;;;4.70;99.90;;;;;;5056601;28;20119;-74
2022/02/22 07:35:05;;;;;;;22.20;5.25;;;4.80;99.90;;;;;;5056731;28;20067;-74
2022/02/22 07:37:31;;;;;;;33.30;6.55;;;4.80;99.90;;;;;;5056619;28;20040;-73
2022/02/22 07:39:57;;;;;;;31.30;5.63;;;4.90;99.90;;;;;;5056509;28;20080;-74
2022/02/22 07:42:23;;;;;;;26.83;5.80;;;5.10;99.90;;;;;;5056470;28;20048;-73
2022/02/22 07:44:48;;;;;;;32.42;6.50;;;5.20;99.90;;;;;;5056597;28;20043;-73
2022/02/22 07:47:14;;;;;;;25.42;5.18;;;5.20;99.90;;;;;;5055978;28;20044;-73
2022/02/22 07:49:40;;;;;;;32.35;6.43;;;5.20;99.90;;;;;;5039366;28;20493;-73
2022/02/22 07:52:06;;;;;;;28.38;5.57;;;5.20;99.90;;;;;;5038932;28;20127;-73
2022/02/22 07:54:31;;;;;;;29.30;5.70;;;5.20;99.90;;;;;;5056075;28;20139;-73
2022/02/22 07:56:57;;;;;;;19.17;4.90;;;5.20;99.90;;;;;;5073667;28;20040;-73
2022/02/22 07:59:22;;;;;;;25.23;5.35;;;5.20;99.90;;;;;;5073230;28;20115;-73
2022/02/22 08:01:50;;;;;;;29.48;5.65;;;5.20;99.90;;;;;;5072695;28;20075;-73
2022/02/22 08:04:16;;;;;;;24.38;4.72;;;5.20;99.90;;;;;;5038957;28;20484;-73
2022/02/22 08:06:41;;;;;;;31.58;6.80;;;5.20;99.90;;;;;;5073533;28;20083;-73
2022/02/22 08:09:07;;;;;;;28.48;5.65;;;5.20;99.90;;;;;;5038793;28;20076;-73
2022/02/22 08:11:33;;;;;;;35.25;6.47;;;5.20;99.90;;;;;;5054394;28;20485;-73
2022/02/22 08:13:59;;;;;;;23.70;6.28;;;5.40;99.90;;;;;;5052131;28;20114;-73
2022/02/22 08:16:26;;;;;;;36.83;6.65;;;5.50;99.90;;;;;;5046505;28;20102;-72
2022/02/22 08:18:53;;;;;;;24.75;5.43;;;5.60;99.90;;;;;;5055092;28;20119;-72
2022/02/22 08:21:19;;;;;;;28.98;6.13;;;5.70;99.90;;;;;;5047998;28;20052;-72
2022/02/22 08:23:44;;;;;;;25.85;4.85;;;5.80;99.90;;;;;;5072178;28;20040;-72
2022/02/22 08:26:10;;;;;;;27.58;6.13;;;5.90;99.90;;;;;;5073374;28;20048;-72
2022/02/22 08:28:35;;;;;;;27.13;5.63;;;6.00;99.90;;;;;;5072811;28;20051;-72
2022/02/22 08:31:01;;;;;;;25.38;5.20;;;6.10;99.90;;;;;;5054971;28;20051;-75
2022/02/22 08:33:27;;;;;;;23.92;5.22;;;6.10;99.90;;;;;;5048986;28;20036;-75
2022/02/22 08:35:53;;;;;;;31.48;5.10;;;6.10;99.90;;;;;;5044037;28;20036;-75
2022/02/22 08:38:18;;;;;;;23.23;6.10;;;6.10;99.90;;;;;;5042975;28;20033;-75
2022/02/22 08:40:45;;;;;;;31.23;6.75;;;6.10;99.90;;;;;;5035038;28;20041;-75
2022/02/22 08:43:13;;;;;;;29.15;5.25;;;6.10;99.90;;;;;;5034995;28;20094;-74
2022/02/22 08:45:39;;;;;;;33.08;5.47;;;6.20;99.90;;;;;;5034979;28;20099;-75
2022/02/22 08:48:05;;;;;;;30.70;6.18;;;6.20;99.90;;;;;;5035168;28;20383;-74
2022/02/22 08:50:30;;;;;;;26.10;5.82;;;6.20;99.90;;;;;;5034773;28;20037;-75
2022/02/22 08:52:56;;;;;;;29.17;4.68;;;6.20;99.90;;;;;;5035750;28;20044;-75
2022/02/22 08:55:22;;;;;;;28.15;5.70;;;6.30;99.90;;;;;;5052410;28;20051;-76
2022/02/22 08:57:48;;;;;;;27.52;6.53;;;6.30;99.90;;;;;;5035651;28;20040;-75
2022/02/22 09:00:15;;;;;;;32.85;5.60;;;6.40;99.90;;;;;;5019961;28;20551;-76
2022/02/22 09:02:41;;;;;;;31.85;5.03;;;6.50;99.90;;;;;;5034840;28;20049;-74
2022/02/22 09:05:08;;;;;;;23.83;4.88;;;6.60;99.90;;;;;;5035482;28;20133;-73
2022/02/22 09:07:37;;;;;;;22.85;4.85;;;6.70;99.90;;;;;;5036092;28;20645;-74
2022/02/22 09:10:04;;;;;;;26.85;4.40;;;6.70;99.90;;;;;;5035549;28;20044;-74
2022/02/22 09:12:31;;;;;;;24.73;4.55;;;6.80;99.90;;;;;;5053172;28;20037;-74
2022/02/22 09:14:57;;;;;;;30.38;5.55;;;6.90;99.90;;;;;;5035762;28;20124;-73
2022/02/22 09:17:23;;;;;;;14.88;5.05;;;6.90;99.90;;;;;;5054128;28;20090;-74
2022/02/22 09:19:49;;;;;;;27.77;4.97;;;7.00;99.90;;;;;;5026428;28;20512;-73
2022/02/22 09:22:14;;;;;;;20.80;4.30;;;7.00;99.90;;;;;;5061199;28;20029;-75
2022/02/22 09:24:40;;;;;;;26.92;5.53;;;7.10;99.90;;;;;;5067199;28;20117;-74
2022/02/22 09:27:06;;;;;;;18.67;3.55;;;7.10;99.90;;;;;;5055714;28;20072;-74
2022/02/22 09:29:31;;;;;;;22.52;3.78;;;7.10;99.90;;;;;;5060629;22;20098;-73
2022/02/22 09:31:57;;;;;;;27.13;4.38;;;7.10;99.90;;;;;;5049498;28;20037;-74
2022/02/22 09:34:23;;;;;;;28.83;4.32;;;7.20;99.90;;;;;;5033898;28;20036;-74
2022/02/22 09:36:48;;;;;;;17.00;5.03;;;7.10;99.90;;;;;;5051467;28;20529;-74
2022/02/22 09:39:14;;;;;;;22.33;4.15;;;7.20;99.90;;;;;;5050430;28;20040;-74
2022/02/22 09:41:40;;;;;;;21.30;4.38;;;7.10;99.90;;;;;;5037798;28;20041;-74
2022/02/22 09:44:06;;;;;;;22.30;4.93;;;7.20;99.90;;;;;;5051482;28;20070;-74
2022/02/22 09:46:33;;;;;;;28.40;4.65;;;7.20;99.90;;;;;;5031116;28;20115;-74
2022/02/22 09:48:59;;;;;;;18.77;4.13;;;7.20;99.90;;;;;;5041321;28;20337;-74
2022/02/22 09:51:25;;;;;;;22.23;4.63;;;7.20;99.90;;;;;;5061148;28;20063;-74
2022/02/22 09:53:51;;;;;;;18.92;4.68;;;7.20;99.90;;;;;;5046840;28;20405;-74
2022/02/22 09:56:24;;;;;;;18.38;4.38;;;7.20;99.90;;;;;;5066804;28;20406;-74
2022/02/22 09:58:50;;;;;;;25.77;4.50;;;7.30;99.90;;;;;;5070498;28;20133;-74
2022/02/22 10:01:15;;;;;;;34.50;4.15;;;7.30;99.90;;;;;;5070391;28;20309;-75
2022/02/22 10:03:41;;;;;;;24.77;4.47;;;7.20;99.90;;;;;;5071245;28;20068;-74
2022/02/22 10:06:08;;;;;;;23.20;5.20;;;7.20;99.90;;;;;;5053590;28;20048;-73
2022/02/22 10:08:39;;;;;;;24.85;4.45;;;7.20;99.90;;;;;;5070877;28;20112;-74
2022/02/22 10:11:09;;;;;;;19.83;4.88;;;7.20;99.90;;;;;;5052707;28;20044;-74
2022/02/22 10:13:36;;;;;;;18.65;3.95;;;7.20;99.90;;;;;;5053125;28;20048;-74
2022/02/22 10:16:10;;;;;;;28.08;4.70;;;7.30;99.90;;;;;;5071362;28;20043;-74
2022/02/22 10:18:53;;;;;;;23.42;5.70;;;7.30;99.90;;;;;;5071189;28;20047;-74
2022/02/22 10:21:20;;;;;;;24.88;5.00;;;7.30;99.90;;;;;;5071013;28;20052;-74
2022/02/22 10:23:46;;;;;;;19.85;5.43;;;7.30;99.90;;;;;;5057640;28;20131;-74
2022/02/22 10:26:29;;;;;;;20.77;5.18;;;7.30;99.90;;;;;;5033304;28;20041;-74
2022/02/22 10:28:55;;;;;;;21.42;5.45;;;7.40;99.90;;;;;;5051054;28;20041;-74
2022/02/22 10:31:34;;;;;;;23.17;6.20;;;7.40;99.90;;;;;;5032896;28;20037;-74
2022/02/22 10:33:59;;;;;;;20.50;5.90;;;7.50;99.90;;;;;;5051175;28;20094;-74
2022/02/22 10:36:37;;;;;;;28.58;6.05;;;7.50;99.90;;;;;;5051045;28;20037;-74
2022/02/22 10:39:04;;;;;;;25.58;6.15;;;7.60;99.90;;;;;;5054334;28;20068;-75
2022/02/22 10:41:38;;;;;;;25.42;8.23;;;7.60;99.90;;;;;;5054676;28;20051;-74
2022/02/22 10:44:06;;;;;;;30.67;7.95;;;7.60;99.90;;;;;;5037223;28;20111;-74
2022/02/22 10:46:35;;;;;;;23.55;7.53;;;7.60;99.90;;;;;;5054333;28;20087;-74
2022/02/22 10:49:09;;;;;;;28.83;8.50;;;7.60;99.90;;;;;;5054300;28;20128;-74
2022/02/22 10:51:42;;;;;;;23.33;7.78;;;7.70;99.90;;;;;;5054279;28;20037;-74
2022/02/22 10:54:14;;;;;;;25.27;7.10;;;7.60;99.90;;;;;;5037047;28;20056;-73
2022/02/22 10:56:40;;;;;;;28.63;6.53;;;7.60;99.90;;;;;;5054005;28;20048;-73
2022/02/22 10:59:06;;;;;;;26.85;9.02;;;7.70;99.90;;;;;;5054105;28;20405;-73
2022/02/22 11:01:31;;;;;;;31.83;7.93;;;7.70;99.90;;;;;;5054127;28;20044;-73
2022/02/22 11:03:57;;;;;;;31.50;7.60;;;7.70;99.90;;;;;;5054465;28;20043;-73
2022/02/22 11:06:23;;;;;;;25.45;7.75;;;7.70;99.90;;;;;;5036551;28;20041;-73
2022/02/22 11:08:51;;;;;;;30.65;7.32;;;7.80;99.90;;;;;;5054137;28;20076;-72
2022/02/22 11:11:38;;;;;;;27.15;7.72;;;7.80;99.90;;;;;;5053682;28;20036;-73
2022/02/22 11:14:06;;;;;;;26.90;7.22;;;7.90;99.90;;;;;;5054127;28;20043;-73
2022/02/22 11:16:40;;;;;;;31.35;7.30;;;7.90;99.90;;;;;;5054180;28;20490;-73
2022/02/22 11:19:17;;;;;;;36.75;7.38;;;7.90;99.90;;;;;;5054243;28;20045;-74
2022/02/22 11:21:45;;;;;;;27.70;8.02;;;7.90;99.90;;;;;;5058961;28;20036;-73
2022/02/22 11:24:11;;;;;;;32.95;8.30;;;7.90;99.90;;;;;;5053221;28;20037;-73
2022/02/22 11:27:06;;;;;;;29.90;8.43;;;7.90;99.90;;;;;;5068166;28;20048;-73
2022/02/22 11:29:31;;;;;;;31.30;6.75;;;7.90;99.90;;;;;;5052187;28;20048;-74
2022/02/22 11:32:12;;;;;;;24.77;5.90;;;7.90;99.90;;;;;;5071485;28;20048;-72
2022/02/22 11:34:40;;;;;;;25.25;5.75;;;7.90;99.90;;;;;;5054738;28;20609;-72
2022/02/22 11:37:12;;;;;;;34.88;6.85;;;7.90;99.90;;;;;;5035823;28;20403;-73
2022/02/22 11:39:42;;;;;;;22.42;5.85;;;7.90;99.90;;;;;;5053860;28;20043;-73
2022/02/22 11:42:23;;;;;;;26.52;6.97;;;7.90;99.90;;;;;;5035346;28;20399;-73
2022/02/22 11:45:09;;;;;;;21.83;5.88;;;7.90;99.90;;;;;;5035644;28;20398;-73
2022/02/22 11:47:37;;;;;;;30.35;6.05;;;7.80;99.90;;;;;;5053486;28;20048;-73
2022/02/22 11:50:18;;;;;;;23.95;5.63;;;7.80;99.90;;;;;;5052365;28;20496;-73
2022/02/22 11:52:48;;;;;;;29.90;7.57;;;7.80;99.90;;;;;;5053293;28;20045;-73
2022/02/22 11:55:19;;;;;;;26.75;6.72;;;7.80;99.90;;;;;;5053379;28;20041;-73
2022/02/22 11:57:48;;;;;;;27.48;7.25;;;7.80;99.90;;;;;;5053194;28;20112;-74
2022/02/22 12:00:17;;;;;;;29.60;5.70;;;7.80;99.90;;;;;;5052985;28;20525;-73
2022/02/22 12:02:44;;;;;;;25.85;8.27;;;7.80;99.90;;;;;;5052786;28;20047;-74
2022/02/22 12:05:38;;;;;;;30.25;6.32;;;7.80;99.90;;;;;;5053240;28;20098;-73
2022/02/22 12:08:16;;;;;;;34.97;5.93;;;7.80;99.90;;;;;;5052986;28;20116;-73
2022/02/22 12:11:00;;;;;;;23.13;5.85;;;7.80;99.90;;;;;;5053334;28;20120;-73
2022/02/22 12:13:46;;;;;;;28.38;7.07;;;7.80;99.90;;;;;;5053183;28;20049;-73
2022/02/22 12:16:19;;;;;;;21.13;6.88;;;7.70;99.90;;;;;;5052996;28;20499;-73
2022/02/22 12:18:46;;;;;;;28.95;8.05;;;7.70;99.90;;;;;;5052842;28;20037;-73
2022/02/22 12:21:12;;;;;;;28.80;6.40;;;7.60;99.90;;;;;;5052827;28;20052;-73
2022/02/22 12:23:40;;;;;;;23.35;6.55;;;7.50;99.90;;;;;;5053044;28;20090;-73
2022/02/22 12:26:11;;;;;;;24.35;7.00;;;7.50;99.90;;;;;;5052871;28;20041;-74
2022/02/22 12:28:50;;;;;;;42.08;8.85;;;7.40;99.90;;;;;;5052018;28;20086;-73
2022/02/22 12:31:24;;;;;;;27.80;7.13;;;7.40;99.90;;;;;;5056869;28;20052;-73
2022/02/22 12:33:50;;;;;;;22.20;6.93;;;7.40;99.90;;;;;;5059537;28;20045;-73
2022/02/22 12:36:19;;;;;;;24.48;7.63;;;7.40;99.90;;;;;;5059364;28;20044;-73
2022/02/22 12:38:48;;;;;;;35.45;9.32;;;7.40;99.90;;;;;;5052619;28;20151;-73
2022/02/22 12:41:16;;;;;;;32.13;8.75;;;7.40;99.90;;;;;;5052303;28;20043;-73
2022/02/22 12:43:47;;;;;;;27.23;7.88;;;7.40;99.90;;;;;;5034519;28;20048;-74
2022/02/22 12:46:14;;;;;;;20.15;8.85;;;7.40;99.90;;;;;;5052711;28;20060;-73
2022/02/22 12:48:41;;;;;;;31.58;9.77;;;7.40;99.90;;;;;;5052694;28;20044;-74